Time;durP1;ratioP1;P1;durP2;ratioP2;P2;SDS_P1;SDS_P2;PMS_P1;PMS_P2;Temp;Humidity;BMP_temperature;BMP_pressure;BME280_temperature;BME280_humidity;BME280_pressure;Samples;Min_cycle;Max_cycle;Signal;HPM_P1;HPM_P2
2023/09/01 00:02:24;;;;;;;6.20;2.83;;;;;;;18.97;56.10;95167.25;5071094;28;20052;-82
2023/09/01 00:04:50;;;;;;;4.38;2.40;;;;;;;18.95;56.20;95178.88;5089033;28;20023;-84
2023/09/01 00:07:15;;;;;;;4.03;2.30;;;;;;;18.94;56.59;95176.59;5089099;28;20032;-83
2023/09/01 00:09:41;;;;;;;4.60;2.30;;;;;;;18.89;56.65;95172.47;5053480;28;20024;-83
2023/09/01 00:12:06;;;;;;;3.15;1.98;;;;;;;18.91;56.54;95185.91;5070202;28;20516;-83
2023/09/01 00:14:31;;;;;;;4.50;2.50;;;;;;;18.92;56.09;95184.66;5070179;28;20089;-82
2023/09/01 00:16:57;;;;;;;4.88;2.42;;;;;;;18.82;56.40;95184.78;5070160;28;20028;-81
2023/09/01 00:19:23;;;;;;;4.55;2.13;;;;;;;18.78;56.65;95180.69;5088060;28;20570;-83
2023/09/01 00:21:49;;;;;;;6.95;2.60;;;;;;;18.76;56.49;95195.09;5070275;28;20040;-82
2023/09/01 00:24:15;;;;;;;5.57;2.58;;;;;;;18.64;56.74;95179.44;5069607;28;20036;-81
2023/09/01 00:26:41;;;;;;;4.97;2.63;;;;;;;18.67;56.87;95189.63;5069721;28;20031;-81
2023/09/01 00:29:06;;;;;;;5.03;2.20;;;;;;;18.56;56.95;95183.88;5069809;28;20462;-83
2023/09/01 00:31:33;;;;;;;6.50;2.70;;;;;;;18.56;57.00;95181.09;5069835;28;20034;-83
2023/09/01 00:33:58;;;;;;;5.43;2.67;;;;;;;18.56;57.30;95179.06;5069693;28;20047;-83
2023/09/01 00:36:24;;;;;;;4.75;2.67;;;;;;;18.54;57.34;95175.25;5087503;28;20020;-83
2023/09/01 00:38:49;;;;;;;4.68;2.20;;;;;;;18.55;57.17;95179.56;5069669;28;20407;-83
2023/09/01 00:41:14;;;;;;;4.60;2.47;;;;;;;18.45;57.38;95178.13;5069268;28;20012;-83
2023/09/01 00:43:40;;;;;;;7.53;2.95;;;;;;;18.41;57.50;95185.91;5069636;28;20020;-82
2023/09/01 00:46:05;;;;;;;4.25;2.58;;;;;;;18.42;57.47;95177.09;5087609;28;20019;-81
2023/09/01 00:48:31;;;;;;;4.75;2.42;;;;;;;18.43;57.56;95189.00;5069513;28;20028;-83
2023/09/01 00:50:56;;;;;;;6.72;2.33;;;;;;;18.45;57.57;95192.03;5087957;28;20030;-82
2023/09/01 00:53:22;;;;;;;4.95;2.55;;;;;;;18.39;57.81;95182.84;5069411;28;20399;-83
2023/09/01 00:55:48;;;;;;;4.45;2.60;;;;;;;18.41;58.01;95185.91;5087781;28;20422;-83
2023/09/01 00:58:14;;;;;;;4.50;3.00;;;;;;;18.37;58.06;95188.13;5087163;28;20402;-82
2023/09/01 01:00:39;;;;;;;4.38;2.88;;;;;;;18.34;58.37;95192.63;5052512;28;20099;-83
2023/09/01 01:03:07;;;;;;;6.45;4.00;;;;;;;18.35;58.08;95188.63;5068965;28;20016;-82
2023/09/01 01:06:11;;;;;;;9.35;5.20;;;;;;;18.33;58.12;95185.53;5069106;28;20093;-82
2023/09/01 01:08:57;;;;;;;10.90;6.85;;;;;;;18.33;58.11;95187.56;4969209;28;20030;-82
2023/09/01 01:11:26;;;;;;;10.15;5.75;;;;;;;18.36;58.02;95192.19;4984176;28;20117;-81
2023/09/01 01:13:55;;;;;;;7.10;4.43;;;;;;;18.27;58.04;95193.78;4969213;28;20034;-82
2023/09/01 01:16:21;;;;;;;6.72;4.22;;;;;;;18.32;57.74;95192.34;4985124;28;20046;-83
2023/09/01 01:18:47;;;;;;;6.40;3.85;;;;;;;18.26;57.75;95192.28;4968538;28;20022;-83
2023/09/01 01:21:21;;;;;;;5.22;3.47;;;;;;;18.22;57.59;95188.13;4969091;28;20045;-83
2023/09/01 01:23:46;;;;;;;8.20;3.55;;;;;;;18.24;57.85;95185.66;4968734;28;20497;-83
2023/09/01 01:26:15;;;;;;;5.00;3.15;;;;;;;18.18;57.83;95191.13;4968954;28;20038;-82
2023/09/01 01:28:40;;;;;;;6.10;3.13;;;;;;;18.08;57.86;95186.91;4952417;28;20057;-81
2023/09/01 01:31:06;;;;;;;6.10;3.17;;;;;;;18.09;58.11;95182.13;4952416;28;20493;-83
2023/09/01 01:33:50;;;;;;;5.95;3.15;;;;;;;18.07;58.01;95187.41;4968856;28;20026;-82
2023/09/01 01:36:34;;;;;;;6.13;2.90;;;;;;;18.05;58.24;95188.63;4967614;28;20043;-82
2023/09/01 01:39:05;;;;;;;7.45;3.05;;;;;;;18.07;58.01;95182.59;4985073;28;20026;-82
2023/09/01 01:41:52;;;;;;;6.68;2.95;;;;;;;17.99;58.11;95181.44;4972760;28;20027;-82
2023/09/01 01:44:21;;;;;;;7.00;2.90;;;;;;;18.02;58.16;95175.69;5028489;28;20474;-82
2023/09/01 01:46:47;;;;;;;4.63;3.08;;;;;;;17.97;58.31;95181.16;5061804;28;20079;-82
2023/09/01 01:49:14;;;;;;;6.28;2.50;;;;;;;17.96;58.18;95180.38;5027999;28;20090;-81
2023/09/01 01:51:39;;;;;;;5.35;2.45;;;;;;;17.97;58.41;95179.13;5045102;28;20135;-82
2023/09/01 01:54:05;;;;;;;6.72;3.30;;;;;;;17.98;58.29;95177.88;5046066;28;20376;-81
2023/09/01 01:56:31;;;;;;;4.13;2.25;;;;;;;17.97;58.43;95178.38;5044863;28;20037;-81
2023/09/01 01:58:56;;;;;;;5.18;2.85;;;;;;;17.93;58.47;95173.00;5044306;28;20063;-81
2023/09/01 02:01:22;;;;;;;4.70;2.30;;;;;;;17.98;58.48;95177.88;5044280;28;20012;-79
2023/09/01 02:03:47;;;;;;;4.15;2.70;;;;;;;17.94;58.68;95174.53;5046171;28;20021;-82
2023/09/01 02:06:13;;;;;;;5.90;2.80;;;;;;;17.94;58.28;95180.09;5027640;28;20033;-82
2023/09/01 02:08:38;;;;;;;5.10;2.28;;;;;;;17.92;58.39;95177.03;5028299;28;20028;-82
2023/09/01 02:11:04;;;;;;;5.30;2.40;;;;;;;17.92;58.44;95174.25;5044725;28;20075;-81
2023/09/01 02:13:30;;;;;;;3.72;2.78;;;;;;;17.92;58.62;95174.25;5044558;28;20519;-83
2023/09/01 02:15:56;;;;;;;4.10;2.78;;;;;;;17.93;58.53;95175.00;5027678;28;20036;-81
2023/09/01 02:18:21;;;;;;;8.02;3.00;;;;;;;18.00;58.21;95182.97;5044309;28;20464;-81
2023/09/01 02:20:47;;;;;;;4.45;2.40;;;;;;;17.99;58.04;95187.75;5027382;28;20531;-82
2023/09/01 02:23:17;;;;;;;4.47;2.50;;;;;;;17.91;58.66;95180.28;5047649;28;20025;-81
2023/09/01 02:25:43;;;;;;;4.80;2.58;;;;;;;17.94;58.35;95190.44;5068009;28;20032;-82
2023/09/01 02:28:09;;;;;;;6.15;2.70;;;;;;;17.88;58.48;95184.78;5067371;28;20462;-81
2023/09/01 02:30:35;;;;;;;4.78;2.67;;;;;;;17.81;58.69;95178.84;5067193;28;20093;-82
2023/09/01 02:33:01;;;;;;;4.85;2.95;;;;;;;17.84;58.43;95172.34;5067801;28;20119;-82
2023/09/01 02:35:27;;;;;;;3.95;2.60;;;;;;;17.82;58.40;95172.03;5085116;28;20028;-82
2023/09/01 02:37:52;;;;;;;4.20;2.50;;;;;;;17.83;58.65;95182.66;5067094;28;20088;-83
2023/09/01 02:40:18;;;;;;;5.97;2.90;;;;;;;17.71;58.33;95159.44;5067248;28;20097;-82
2023/09/01 02:42:43;;;;;;;5.30;2.50;;;;;;;17.80;58.46;95178.09;5067294;28;20032;-82
2023/09/01 02:45:12;;;;;;;5.60;3.05;;;;;;;17.75;58.52;95181.53;5085395;28;20133;-83
2023/09/01 02:47:37;;;;;;;5.93;3.28;;;;;;;17.78;58.49;95181.34;5050617;28;20082;-82
2023/09/01 02:50:07;;;;;;;5.25;2.80;;;;;;;17.77;58.40;95179.03;5067315;28;20024;-83
2023/09/01 02:52:32;;;;;;;7.60;3.10;;;;;;;17.70;58.67;95174.59;5050459;28;20123;-82
2023/09/01 02:54:58;;;;;;;4.75;2.58;;;;;;;17.64;58.54;95173.72;5067071;28;20099;-82
2023/09/01 02:57:24;;;;;;;5.18;2.70;;;;;;;17.65;58.89;95178.03;5067091;28;20055;-82
2023/09/01 02:59:50;;;;;;;7.60;2.85;;;;;;;17.68;58.52;95176.31;5067385;28;20016;-82
2023/09/01 03:02:15;;;;;;;6.50;2.50;;;;;;;17.65;58.53;95180.81;5067181;28;20024;-81
2023/09/01 03:04:41;;;;;;;6.38;2.70;;;;;;;17.61;58.80;95176.69;5067435;28;20409;-81
2023/09/01 03:07:07;;;;;;;5.97;2.75;;;;;;;17.58;58.77;95174.84;5067055;28;20020;-81
2023/09/01 03:09:32;;;;;;;5.70;2.80;;;;;;;17.56;58.98;95180.13;5067123;28;20035;-82
2023/09/01 03:11:57;;;;;;;6.32;2.92;;;;;;;17.57;58.87;95188.00;5085320;28;20119;-82
2023/09/01 03:14:24;;;;;;;5.32;2.63;;;;;;;17.58;59.06;95180.41;5050660;28;20016;-81
2023/09/01 03:16:49;;;;;;;4.70;3.00;;;;;;;17.54;59.05;95175.03;5050236;28;20032;-81
2023/09/01 03:19:15;;;;;;;6.03;2.90;;;;;;;17.59;58.78;95190.28;5050204;28;20418;-82
2023/09/01 03:21:40;;;;;;;9.77;3.53;;;;;;;17.50;59.27;95180.78;5085110;28;20574;-81
2023/09/01 03:24:06;;;;;;;7.55;3.40;;;;;;;17.53;59.32;95187.41;5066579;28;20040;-81
2023/09/01 03:26:32;;;;;;;5.65;2.95;;;;;;;17.53;59.37;95193.72;5067033;28;20028;-81
2023/09/01 03:28:57;;;;;;;7.75;3.10;;;;;;;17.47;59.29;95192.09;5066811;28;20050;-80
2023/09/01 03:31:22;;;;;;;5.07;2.60;;;;;;;17.51;59.21;95192.69;5067195;28;20038;-83
2023/09/01 03:33:48;;;;;;;5.18;2.97;;;;;;;17.50;58.97;95189.13;5068868;28;20111;-81
2023/09/01 03:36:14;;;;;;;6.80;2.60;;;;;;;17.47;58.90;95190.06;5089126;28;20020;-81
2023/09/01 03:38:39;;;;;;;7.53;3.33;;;;;;;17.42;58.96;95192.75;5070421;28;20457;-80
2023/09/01 03:41:06;;;;;;;4.97;3.03;;;;;;;17.40;58.56;95187.66;5088959;28;20113;-82
2023/09/01 03:43:34;;;;;;;10.40;3.17;;;;;;;17.33;58.80;95196.38;5070771;28;20032;-82
2023/09/01 03:46:02;;;;;;;9.20;3.40;;;;;;;17.33;58.67;95190.81;5088918;28;20031;-82
2023/09/01 03:48:28;;;;;;;6.45;3.13;;;;;;;17.33;59.05;95190.81;5070950;28;20081;-84
2023/09/01 03:51:09;;;;;;;8.32;3.20;;;;;;;17.37;58.84;95193.41;5088542;28;20028;-80
2023/09/01 03:53:35;;;;;;;12.80;2.90;;;;;;;17.33;59.17;95190.81;5088642;28;20078;-79
2023/09/01 03:56:07;;;;;;;5.35;2.70;;;;;;;17.34;58.88;95199.91;5070256;28;20081;-78
2023/09/01 03:58:33;;;;;;;10.32;2.80;;;;;;;17.32;59.41;95196.81;5069770;28;20070;-79
2023/09/01 04:00:58;;;;;;;6.03;3.20;;;;;;;17.31;59.34;95198.84;5070509;28;20052;-83
2023/09/01 04:03:23;;;;;;;8.52;3.30;;;;;;;17.38;59.35;95208.84;5070463;28;20032;-85
2023/09/01 04:05:49;;;;;;;10.02;2.97;;;;;;;17.34;59.60;95203.47;5089110;28;20038;-81
2023/09/01 04:08:14;;;;;;;5.32;3.17;;;;;;;17.34;59.72;95211.03;5088800;28;20024;-79
2023/09/01 04:10:40;;;;;;;7.10;3.13;;;;;;;17.35;59.67;95216.09;5088733;28;20406;-83
2023/09/01 04:13:05;;;;;;;7.15;3.15;;;;;;;17.30;59.80;95216.75;5088415;28;20405;-82
2023/09/01 04:15:31;;;;;;;7.13;3.13;;;;;;;17.34;59.48;95222.91;5088430;28;20039;-82
2023/09/01 04:17:56;;;;;;;10.93;3.80;;;;;;;17.36;59.49;95220.41;5088132;28;20028;-81
2023/09/01 04:20:21;;;;;;;8.98;3.38;;;;;;;17.36;59.76;95225.97;5088330;28;20126;-81
2023/09/01 04:22:47;;;;;;;5.82;3.50;;;;;;;17.31;59.68;95220.31;5088254;28;20095;-79
2023/09/01 04:25:13;;;;;;;5.85;3.42;;;;;;;17.31;59.64;95223.09;5088147;28;20593;-78
2023/09/01 04:27:38;;;;;;;10.43;3.63;;;;;;;17.27;59.64;95222.50;5088265;28;20468;-78
2023/09/01 04:30:04;;;;;;;10.10;3.80;;;;;;;17.33;59.74;95221.38;5088123;28;20028;-79
2023/09/01 04:32:30;;;;;;;6.85;3.40;;;;;;;17.36;59.65;95230.78;5088760;28;20443;-79
2023/09/01 04:34:55;;;;;;;8.18;3.15;;;;;;;17.37;59.89;95233.06;5069692;28;20097;-79
2023/09/01 04:37:21;;;;;;;9.07;4.28;;;;;;;17.39;59.80;95238.16;5087173;28;20032;-80
2023/09/01 04:39:46;;;;;;;5.53;3.40;;;;;;;17.40;59.61;95231.38;5088229;28;20042;-78
2023/09/01 04:42:11;;;;;;;4.85;3.40;;;;;;;17.41;59.29;95239.22;5088053;28;20020;-80
2023/09/01 04:44:37;;;;;;;5.68;3.67;;;;;;;17.35;59.20;95226.47;5088280;28;20073;-78
2023/09/01 04:47:03;;;;;;;6.93;3.65;;;;;;;17.42;59.26;95243.53;5087631;28;20288;-79
2023/09/01 04:49:28;;;;;;;9.50;3.35;;;;;;;17.47;58.46;95245.66;5088224;28;20076;-79
2023/09/01 04:51:54;;;;;;;7.15;3.25;;;;;;;17.48;58.03;95243.63;5087559;28;20039;-78
2023/09/01 04:54:19;;;;;;;5.68;3.00;;;;;;;17.50;58.26;95252.28;5088190;28;20482;-77
2023/09/01 04:56:45;;;;;;;6.47;3.40;;;;;;;17.48;57.94;95249.97;5087720;28;20111;-80
2023/09/01 04:59:10;;;;;;;8.07;3.83;;;;;;;17.41;58.15;95244.00;5087496;28;20046;-80
2023/09/01 05:01:36;;;;;;;10.50;3.85;;;;;;;17.50;58.01;95255.84;5087967;28;20081;-80
2023/09/01 05:04:01;;;;;;;7.53;3.60;;;;;;;17.50;58.00;95253.06;5087474;28;20406;-79
2023/09/01 05:06:26;;;;;;;7.95;3.92;;;;;;;17.56;57.91;95257.97;5087791;28;20110;-79
2023/09/01 05:08:52;;;;;;;6.88;3.00;;;;;;;17.55;57.70;95270.31;5087303;28;20026;-78
2023/09/01 05:11:17;;;;;;;6.50;3.00;;;;;;;17.54;57.44;95263.97;5088103;28;20452;-80
2023/09/01 05:13:43;;;;;;;6.78;3.58;;;;;;;17.58;57.47;95269.38;5087756;28;20040;-80
2023/09/01 05:16:10;;;;;;;7.00;3.40;;;;;;;17.63;57.48;95268.72;5087555;28;20123;-80
2023/09/01 05:18:35;;;;;;;6.28;3.10;;;;;;;17.59;57.46;95274.44;5087463;28;20486;-78
2023/09/01 05:21:02;;;;;;;7.90;3.08;;;;;;;17.61;57.41;95271.22;5087375;28;20099;-80
2023/09/01 05:23:31;;;;;;;6.13;3.00;;;;;;;17.71;57.71;95286.56;5087509;28;20525;-79
2023/09/01 05:25:57;;;;;;;5.50;2.97;;;;;;;17.65;57.33;95280.88;5069503;28;20078;-79
2023/09/01 05:28:22;;;;;;;6.38;3.35;;;;;;;17.68;57.65;95282.72;5087240;28;20020;-79
2023/09/01 05:30:48;;;;;;;10.38;3.67;;;;;;;17.73;57.72;95278.56;5087347;28;20032;-78
2023/09/01 05:33:13;;;;;;;6.30;3.67;;;;;;;17.71;57.25;95267.09;5087086;28;20104;-81
2023/09/01 05:35:38;;;;;;;6.57;3.22;;;;;;;17.78;57.55;95286.25;5085337;28;20465;-81
2023/09/01 05:38:04;;;;;;;8.23;3.88;;;;;;;17.82;57.35;95286.81;5085761;28;20115;-82
2023/09/01 05:40:29;;;;;;;11.13;4.13;;;;;;;17.85;57.73;95277.53;5086893;28;20016;-80
2023/09/01 05:42:54;;;;;;;5.97;3.60;;;;;;;17.91;57.02;95278.41;5086521;28;20031;-81
2023/09/01 05:45:20;;;;;;;6.43;3.83;;;;;;;17.89;57.52;95280.91;5086970;28;20020;-83
2023/09/01 05:47:45;;;;;;;8.82;3.47;;;;;;;17.93;57.38;95283.47;5087121;28;20024;-83
2023/09/01 05:50:11;;;;;;;8.80;3.65;;;;;;;18.03;57.35;95290.50;5085339;28;20019;-81
2023/09/01 05:52:36;;;;;;;9.07;4.15;;;;;;;17.99;57.76;95279.53;5068556;28;20024;-83
2023/09/01 05:55:02;;;;;;;8.27;3.38;;;;;;;18.12;57.76;95287.66;5067591;28;20027;-83
2023/09/01 05:57:27;;;;;;;10.35;3.63;;;;;;;18.17;57.44;95289.72;5066500;28;20028;-83
2023/09/01 05:59:52;;;;;;;5.38;3.38;;;;;;;18.22;57.10;95285.53;5067794;28;20510;-85
2023/09/01 06:02:18;;;;;;;7.28;2.80;;;;;;;18.23;57.32;95284.28;5087166;28;20027;-84
2023/09/01 06:04:43;;;;;;;6.25;3.05;;;;;;;18.20;57.22;95276.91;5052187;28;20134;-84
2023/09/01 06:07:09;;;;;;;6.70;3.78;;;;;;;18.31;57.04;95286.22;5068561;28;20099;-84
2023/09/01 06:09:34;;;;;;;8.38;3.70;;;;;;;18.34;57.15;95284.47;5068567;28;20138;-84
2023/09/01 06:12:00;;;;;;;5.15;2.85;;;;;;;18.43;57.26;95289.97;5086375;28;20043;-83
2023/09/01 06:14:26;;;;;;;9.30;3.60;;;;;;;18.53;57.23;95290.63;5086869;28;20035;-85
2023/09/01 06:16:51;;;;;;;7.85;3.70;;;;;;;18.55;56.92;95283.31;5086217;28;20123;-84
2023/09/01 06:19:17;;;;;;;6.82;3.10;;;;;;;18.66;56.65;95284.75;5086564;28;20406;-84
2023/09/01 06:21:43;;;;;;;6.80;3.50;;;;;;;18.69;56.73;95290.16;5068450;28;20043;-84
2023/09/01 06:24:08;;;;;;;6.32;3.33;;;;;;;18.77;56.67;95296.88;5051091;28;20073;-85
2023/09/01 06:26:34;;;;;;;6.65;3.65;;;;;;;18.74;57.17;95297.81;5068332;28;20028;-84
2023/09/01 06:28:59;;;;;;;6.65;3.33;;;;;;;18.71;57.35;95298.81;5086600;28;20343;-82
2023/09/01 06:31:24;;;;;;;7.07;3.20;;;;;;;18.79;57.11;95299.16;5086161;28;20059;-83
2023/09/01 06:33:50;;;;;;;7.88;3.50;;;;;;;18.75;57.24;95293.03;5068317;28;20038;-84
2023/09/01 06:36:17;;;;;;;10.05;3.67;;;;;;;18.86;57.30;95300.78;5085952;28;20097;-85
2023/09/01 06:38:43;;;;;;;10.07;4.18;;;;;;;18.87;57.45;95299.53;5067402;28;20506;-83
2023/09/01 06:41:08;;;;;;;8.00;3.85;;;;;;;18.98;57.12;95305.28;5067656;28;20035;-84
2023/09/01 06:43:34;;;;;;;9.68;4.93;;;;;;;19.08;56.98;95312.28;5067470;28;20032;-84
2023/09/01 06:46:00;;;;;;;9.18;3.63;;;;;;;19.27;56.73;95310.81;5068036;28;20020;-85
2023/09/01 06:48:25;;;;;;;6.18;3.08;;;;;;;19.27;56.71;95310.81;5068010;28;20020;-84
2023/09/01 06:50:51;;;;;;;5.30;3.65;;;;;;;19.23;56.82;95304.66;5068273;28;20077;-84
2023/09/01 06:53:16;;;;;;;7.35;3.60;;;;;;;19.32;56.58;95312.88;5085703;28;20027;-84
2023/09/01 06:55:43;;;;;;;6.80;2.97;;;;;;;19.50;56.30;95311.88;5051172;28;20035;-84
2023/09/01 06:58:09;;;;;;;5.60;3.60;;;;;;;19.59;56.17;95319.38;5067774;28;20064;-84
2023/09/01 07:00:34;;;;;;;7.68;3.08;;;;;;;19.63;56.22;95311.56;5085742;28;20485;-83
2023/09/01 07:02:59;;;;;;;7.07;3.25;;;;;;;19.72;55.56;95330.94;5086283;28;20046;-84
2023/09/01 07:05:25;;;;;;;6.47;3.20;;;;;;;19.83;55.61;95311.56;5067632;28;20036;-84
2023/09/01 07:07:52;;;;;;;4.03;3.30;;;;;;;19.91;55.01;95317.50;5068495;28;20508;-84
2023/09/01 07:10:17;;;;;;;10.07;3.30;;;;;;;20.06;54.99;95317.41;5055131;28;20047;-85
2023/09/01 07:12:44;;;;;;;6.30;3.40;;;;;;;20.19;54.92;95319.84;5071970;28;20028;-84
2023/09/01 07:15:09;;;;;;;3.88;2.67;;;;;;;20.26;54.38;95316.63;5071806;28;20051;-85
2023/09/01 07:17:35;;;;;;;6.50;3.08;;;;;;;20.36;54.27;95315.97;5071634;28;20021;-86
2023/09/01 07:20:00;;;;;;;6.38;3.47;;;;;;;20.55;53.51;95326.84;5055342;28;20063;-85
2023/09/01 07:22:26;;;;;;;4.60;3.22;;;;;;;20.64;52.57;95327.44;5089870;28;20027;-84
2023/09/01 07:24:51;;;;;;;7.13;3.45;;;;;;;20.74;52.99;95327.25;5054771;28;20071;-83
2023/09/01 07:27:16;;;;;;;8.52;4.03;;;;;;;20.81;52.59;95321.22;5071394;28;20455;-85
2023/09/01 07:29:42;;;;;;;8.00;3.45;;;;;;;20.85;52.99;95330.91;5071839;28;20452;-85
2023/09/01 07:32:07;;;;;;;5.93;3.15;;;;;;;20.93;53.05;95326.41;5071839;28;20090;-86
2023/09/01 07:34:33;;;;;;;6.45;3.10;;;;;;;21.05;52.68;95320.91;5089366;28;20028;-85
2023/09/01 07:36:59;;;;;;;7.38;3.10;;;;;;;21.13;51.82;95321.97;5089560;28;20086;-85
2023/09/01 07:39:24;;;;;;;6.90;3.40;;;;;;;21.28;51.90;95322.59;5070987;28;20119;-84
2023/09/01 07:41:49;;;;;;;9.10;4.18;;;;;;;21.29;51.77;95314.97;5071409;28;20050;-84
2023/09/01 07:44:16;;;;;;;6.25;4.07;;;;;;;21.45;50.84;95320.72;5070564;28;20383;-80
2023/09/01 07:46:44;;;;;;;6.38;3.47;;;;;;;21.51;50.67;95328.38;5070759;28;20561;-81
2023/09/01 07:49:10;;;;;;;7.63;3.97;;;;;;;21.58;50.56;95322.31;5070669;28;20020;-82
2023/09/01 07:51:37;;;;;;;6.50;3.42;;;;;;;21.67;50.14;95319.28;5037315;28;20035;-80
2023/09/01 07:54:03;;;;;;;6.03;3.00;;;;;;;21.86;49.20;95322.44;5089120;28;20024;-81
2023/09/01 07:56:29;;;;;;;7.82;3.35;;;;;;;21.95;49.14;95327.81;5070016;28;20024;-80
2023/09/01 07:58:54;;;;;;;5.78;3.08;;;;;;;22.08;48.55;95321.75;5088749;28;20058;-81
2023/09/01 08:01:19;;;;;;;8.85;3.90;;;;;;;22.22;48.50;95326.41;5089053;28;20028;-82
2023/09/01 08:03:45;;;;;;;5.82;3.10;;;;;;;22.31;48.36;95312.19;5088430;28;20374;-81
2023/09/01 08:06:10;;;;;;;8.95;4.05;;;;;;;22.51;47.43;95325.97;5070363;28;20077;-81
2023/09/01 08:08:36;;;;;;;6.53;3.20;;;;;;;22.60;47.24;95315.81;5070017;28;20482;-83
2023/09/01 08:11:01;;;;;;;6.72;3.15;;;;;;;22.71;46.84;95324.22;5070037;28;20028;-81
2023/09/01 08:13:27;;;;;;;4.90;3.13;;;;;;;22.86;47.08;95318.38;5069789;28;20024;-80
2023/09/01 08:15:52;;;;;;;6.13;4.00;;;;;;;22.98;46.37;95311.50;5070522;28;20070;-80
2023/09/01 08:18:18;;;;;;;6.57;3.67;;;;;;;23.18;45.86;95324.53;5088558;28;20077;-85
2023/09/01 08:20:43;;;;;;;3.53;2.65;;;;;;;23.25;46.26;95318.38;5052890;28;20226;-83
2023/09/01 08:23:10;;;;;;;8.38;3.25;;;;;;;23.34;46.14;95318.13;5088183;28;20020;-81
2023/09/01 08:25:36;;;;;;;5.75;3.60;;;;;;;23.49;45.50;95318.59;5070488;28;20107;-84
2023/09/01 08:28:04;;;;;;;5.22;3.58;;;;;;;23.62;45.43;95315.28;5070171;28;20173;-83
2023/09/01 08:30:30;;;;;;;11.23;4.80;;;;;;;23.83;44.57;95310.13;5070724;28;20265;-88
2023/09/01 08:32:55;;;;;;;5.88;3.95;;;;;;;23.97;44.07;95311.06;5088371;28;20036;-80
2023/09/01 08:35:21;;;;;;;5.43;3.28;;;;;;;24.02;44.10;95299.06;5089050;28;20024;-89
2023/09/01 08:37:46;;;;;;;5.60;3.75;;;;;;;24.20;43.35;95290.06;5072889;28;20479;-88
2023/09/01 08:40:12;;;;;;;6.70;4.10;;;;;;;24.35;43.38;95298.16;5070444;28;20028;-89
2023/09/01 08:42:48;;;;;;;6.95;4.00;;;;;;;24.56;42.85;95302.13;5089917;28;20023;-90
2023/09/01 08:45:15;;;;;;;12.07;7.28;;;;;;;24.76;42.36;95303.00;5055107;28;20462;-88
2023/09/01 08:47:45;;;;;;;9.70;5.68;;;;;;;24.97;41.90;95294.94;5071213;28;20051;-84
2023/09/01 08:50:12;;;;;;;17.33;8.25;;;;;;;25.15;41.65;95305.53;5089049;28;20027;-83
2023/09/01 08:52:38;;;;;;;12.82;7.07;;;;;;;25.40;40.80;95303.50;5070751;28;20020;-91
2023/09/01 08:55:05;;;;;;;22.90;12.05;;;;;;;25.56;40.39;95308.19;5057009;28;20028;-87
2023/09/01 08:57:30;;;;;;;9.88;6.53;;;;;;;25.80;40.14;95304.66;5070763;28;20455;-90
2023/09/01 08:59:56;;;;;;;7.55;4.13;;;;;;;25.98;39.57;95286.28;5073537;28;20081;-90
2023/09/01 09:02:21;;;;;;;7.28;4.00;;;;;;;26.29;38.94;95303.81;5081149;28;20016;-88
2023/09/01 09:04:47;;;;;;;9.35;3.22;;;;;;;26.59;36.26;95298.78;5079995;28;20461;-91
2023/09/01 09:07:15;;;;;;;4.65;2.85;;;;;;;26.71;35.69;95291.69;5090693;28;20023;-88
2023/09/01 09:09:58;;;;;;;8.40;3.90;;;;;;;27.02;34.71;95292.25;5053977;28;20131;-88
2023/09/01 09:12:33;;;;;;;;;;;;;;;27.21;35.28;95284.50;5071483;28;20618;-87
2023/09/01 09:14:58;;;;;;;14.07;7.28;;;;;;;27.40;34.46;95283.66;5070889;28;19922;-88
2023/09/01 09:17:44;;;;;;;6.60;4.10;;;;;;;27.62;34.81;95288.13;5070883;28;20417;-88
2023/09/01 09:20:10;;;;;;;6.05;3.53;;;;;;;27.89;34.19;95286.13;5088025;28;20040;-86
2023/09/01 09:22:56;;;;;;;5.65;3.53;;;;;;;28.09;33.67;95285.44;5070380;28;20028;-88
2023/09/01 09:25:33;;;;;;;5.75;3.60;;;;;;;28.42;33.13;95286.81;5070855;28;20052;-89
2023/09/01 09:28:00;;;;;;;4.35;2.92;;;;;;;28.61;32.96;95281.00;5053314;28;20035;-88
2023/09/01 09:30:26;;;;;;;6.03;3.38;;;;;;;28.92;32.17;95281.31;5053144;28;20028;-87
2023/09/01 09:33:10;;;;;;;5.53;3.10;;;;;;;29.05;31.43;95267.88;5069417;28;20085;-88
2023/09/01 09:35:48;;;;;;;5.30;3.10;;;;;;;29.36;30.38;95273.78;5070608;28;20032;-89
2023/09/01 09:38:16;;;;;;;4.82;2.55;;;;;;;29.55;30.37;95265.09;5070388;28;20077;-89
2023/09/01 09:40:42;;;;;;;5.75;3.70;;;;;;;29.70;30.14;95264.44;5070200;28;20028;-88
2023/09/01 09:43:08;;;;;;;5.93;3.67;;;;;;;30.04;29.56;95272.75;5088402;28;20077;-88
2023/09/01 09:45:34;;;;;;;5.20;3.03;;;;;;;30.24;29.62;95271.94;5088146;28;20024;-89
2023/09/01 09:48:00;;;;;;;5.78;3.03;;;;;;;30.34;29.09;95267.25;5070049;28;20027;-89
2023/09/01 09:50:26;;;;;;;5.70;2.70;;;;;;;30.36;28.48;95266.69;5088576;28;20105;-89
2023/09/01 09:53:00;;;;;;;3.83;3.00;;;;;;;30.56;29.05;95270.72;5070579;28;20016;-88
2023/09/01 09:55:30;;;;;;;4.82;3.30;;;;;;;30.68;29.05;95260.53;5070420;28;20020;-85
2023/09/01 09:58:05;;;;;;;8.70;3.75;;;;;;;30.98;28.84;95267.63;5069163;28;20074;-89
2023/09/01 10:00:55;;;;;;;5.30;2.70;;;;;;;31.16;28.47;95267.28;5053481;28;20594;-90
2023/09/01 10:03:23;;;;;;;4.32;3.03;;;;;;;31.45;28.23;95255.75;5069892;28;20043;-90
2023/09/01 10:05:50;;;;;;;5.47;3.03;;;;;;;31.59;28.43;95253.44;5053190;28;20028;-88
2023/09/01 10:08:18;;;;;;;5.53;3.10;;;;;;;31.86;27.95;95265.94;5052947;28;20119;-87
2023/09/01 10:10:44;;;;;;;5.80;2.90;;;;;;;31.92;26.90;95257.22;5068380;28;20551;-88
2023/09/01 10:13:09;;;;;;;4.78;3.10;;;;;;;32.11;27.25;95251.84;5053175;28;20028;-88
2023/09/01 10:15:36;;;;;;;5.72;3.05;;;;;;;32.25;26.14;95249.53;5069735;28;20351;-89
2023/09/01 10:18:08;;;;;;;5.57;3.20;;;;;;;32.29;26.62;95249.13;5069466;28;20069;-89
2023/09/01 10:20:37;;;;;;;3.63;2.72;;;;;;;32.54;26.25;95258.53;5069878;28;20032;-88
2023/09/01 10:23:03;;;;;;;4.50;2.80;;;;;;;32.80;25.43;95251.53;5068762;28;20024;-87
2023/09/01 10:25:29;;;;;;;4.15;2.80;;;;;;;33.02;26.20;95261.28;5069505;28;20467;-87
2023/09/01 10:27:58;;;;;;;6.18;2.97;;;;;;;33.26;25.35;95256.94;5067978;28;20096;-88
2023/09/01 10:30:40;;;;;;;6.93;4.50;;;;;;;33.25;24.16;95256.19;5087478;28;20095;-88
2023/09/01 10:33:17;;;;;;;3.42;2.80;;;;;;;33.28;25.19;95257.13;5052410;28;20055;-88
2023/09/01 10:35:43;;;;;;;5.75;3.10;;;;;;;33.52;24.21;95241.38;5052532;28;20564;-89
2023/09/01 10:38:12;;;;;;;5.70;3.03;;;;;;;33.67;24.30;95254.72;5068965;28;20045;-89
2023/09/01 10:40:42;;;;;;;4.82;3.22;;;;;;;33.79;23.89;95241.50;5087046;28;20036;-89
2023/09/01 10:43:08;;;;;;;5.35;2.80;;;;;;;34.14;23.24;95250.06;5052191;28;20035;-89
2023/09/01 10:45:34;;;;;;;4.10;2.55;;;;;;;34.46;23.37;95249.88;5052110;28;20039;-88
2023/09/01 10:47:59;;;;;;;5.85;2.92;;;;;;;34.97;22.78;95230.38;5068112;28;20028;-88
2023/09/01 10:50:25;;;;;;;3.85;2.80;;;;;;;35.46;21.74;95243.53;5052945;28;20034;-91
2023/09/01 10:53:30;;;;;;;5.45;3.00;;;;;;;35.94;21.20;95242.13;5053554;28;20087;-90
2023/09/01 10:56:12;;;;;;;5.43;2.60;;;;;;;36.34;21.29;95238.66;5075193;28;20043;-90
2023/09/01 10:58:39;;;;;;;6.10;2.88;;;;;;;36.83;19.86;95227.91;5063286;28;20024;-94
2023/09/01 11:01:28;;;;;;;3.95;2.80;;;;;;;37.25;19.71;95232.31;5068605;28;20400;-85
2023/09/01 11:03:54;;;;;;;3.13;2.65;;;;;;;37.72;19.37;95214.09;5068403;28;20032;-89
2023/09/01 11:06:22;;;;;;;3.83;2.60;;;;;;;38.37;18.46;95222.72;5051525;28;20038;-86
2023/09/01 11:08:58;;;;;;;3.85;3.20;;;;;;;38.77;17.85;95213.13;5051530;28;20482;-87
2023/09/01 11:11:24;;;;;;;4.45;2.92;;;;;;;39.16;17.21;95215.53;5086686;28;20035;-90
2023/09/01 11:14:02;;;;;;;5.82;2.75;;;;;;;39.44;17.13;95210.81;5052152;28;20054;-89
2023/09/01 11:16:27;;;;;;;3.15;2.35;;;;;;;39.95;16.50;95205.25;5067726;28;20440;-87
2023/09/01 11:19:02;;;;;;;3.70;2.70;;;;;;;40.41;16.39;95215.88;5051565;28;20024;-89
2023/09/01 11:21:29;;;;;;;6.60;2.83;;;;;;;40.65;16.17;95199.25;5068256;28;20020;-87
2023/09/01 11:23:59;;;;;;;4.95;2.40;;;;;;;40.66;15.92;95208.63;5050275;28;20040;-87
2023/09/01 11:26:25;;;;;;;4.95;3.13;;;;;;;39.64;16.19;95203.47;5068730;28;20486;-90
2023/09/01 11:28:50;;;;;;;6.70;3.40;;;;;;;38.00;17.86;95198.06;5068288;28;20059;-88
2023/09/01 11:31:15;;;;;;;3.33;2.60;;;;;;;37.35;18.99;95192.91;5051398;28;20024;-89
2023/09/01 11:33:42;;;;;;;3.78;2.65;;;;;;;37.02;19.48;95187.00;5068639;28;20020;-88
2023/09/01 11:36:11;;;;;;;5.80;3.08;;;;;;;36.57;19.62;95196.03;5051357;28;20036;-86